createdAt,value
2022-10-18T00:01:06.309Z,9.70
2022-10-18T00:03:40.711Z,16.00
2022-10-18T00:06:09.793Z,17.90
2022-10-18T00:08:39.191Z,16.60
2022-10-18T00:11:08.043Z,17.50
2022-10-18T00:13:36.944Z,15.80
2022-10-18T00:16:10.315Z,17.70
2022-10-18T00:18:38.923Z,18.20
2022-10-18T00:21:11.423Z,17.00
2022-10-18T00:23:39.793Z,17.70
2022-10-18T00:26:17.639Z,16.70
2022-10-18T00:28:47.633Z,15.40
2022-10-18T00:31:23.902Z,16.10
2022-10-18T00:33:55.069Z,16.20
2022-10-18T00:36:23.670Z,9.20
2022-10-18T00:38:52.514Z,8.40
2022-10-18T00:41:28.135Z,15.10
2022-10-18T00:44:06.055Z,7.80
2022-10-18T00:46:39.575Z,15.00
2022-10-18T00:49:33.462Z,15.00
2022-10-18T00:52:06.753Z,8.40
2022-10-18T00:54:37.664Z,9.70
2022-10-18T00:57:06.525Z,9.70
2022-10-18T00:59:35.842Z,17.10
2022-10-18T01:02:05.190Z,10.70
2022-10-18T01:04:34.213Z,11.10
2022-10-18T01:07:25.363Z,10.00
2022-10-18T01:09:59.650Z,16.10
2022-10-18T01:12:50.118Z,10.90
2022-10-18T01:15:30.084Z,11.20
2022-10-18T01:18:13.504Z,9.50
2022-10-18T01:20:53.834Z,11.90
2022-10-18T01:23:25.045Z,8.00
2022-10-18T01:26:12.165Z,14.80
2022-10-18T01:28:52.354Z,16.40
2022-10-18T01:31:23.521Z,15.40
2022-10-18T01:33:53.541Z,15.00
2022-10-18T01:36:34.970Z,16.10
2022-10-18T01:39:07.860Z,10.90
2022-10-18T01:41:39.923Z,15.40
2022-10-18T01:44:11.725Z,11.60
2022-10-18T01:46:41.520Z,15.30
2022-10-18T01:49:09.580Z,15.90
2022-10-18T01:51:37.532Z,17.60
2022-10-18T01:54:05.822Z,13.60
2022-10-18T01:56:55.077Z,13.80
2022-10-18T01:59:55.488Z,18.80
2022-10-18T02:02:34.134Z,12.50
2022-10-18T02:05:22.798Z,16.40
2022-10-18T02:08:12.699Z,13.60
2022-10-18T02:10:56.259Z,15.50
2022-10-18T02:13:29.869Z,9.10
2022-10-18T02:16:04.978Z,14.40
2022-10-18T02:18:41.658Z,12.60
2022-10-18T02:21:13.699Z,17.50
2022-10-18T02:23:45.113Z,16.20
2022-10-18T02:26:17.397Z,14.30
2022-10-18T02:28:46.643Z,11.10
2022-10-18T02:31:39.865Z,11.30
2022-10-18T02:34:28.277Z,13.80
2022-10-18T02:37:00.691Z,10.00
2022-10-18T02:39:32.882Z,11.20
2022-10-18T02:42:01.193Z,10.30
2022-10-18T02:44:29.138Z,15.50
2022-10-18T02:46:57.271Z,9.50
2022-10-18T02:49:25.558Z,9.50
2022-10-18T02:51:53.581Z,9.90
2022-10-18T02:54:21.747Z,17.20
2022-10-18T02:56:50.158Z,18.20
2022-10-18T02:59:18.515Z,17.80
2022-10-18T03:01:49.202Z,12.90
2022-10-18T03:04:17.650Z,15.70
2022-10-18T03:06:45.698Z,15.00
2022-10-18T03:09:13.698Z,15.60
2022-10-18T03:11:41.720Z,13.70
2022-10-18T03:14:09.767Z,9.30
2022-10-18T03:16:37.782Z,12.80
2022-10-18T03:19:05.854Z,16.00
2022-10-18T03:21:33.971Z,16.70
2022-10-18T03:24:02.503Z,15.40
2022-10-18T03:26:30.654Z,9.60
2022-10-18T03:28:58.749Z,15.90
2022-10-18T03:31:26.934Z,15.40
2022-10-18T03:33:54.971Z,16.10
2022-10-18T03:36:23.054Z,14.60
2022-10-18T03:38:51.228Z,13.70
2022-10-18T03:41:20.792Z,14.60
2022-10-18T03:43:49.059Z,14.70
2022-10-18T03:46:17.155Z,10.40
2022-10-18T03:48:45.129Z,11.10
2022-10-18T03:51:13.209Z,15.60
2022-10-18T03:53:41.423Z,11.10
2022-10-18T03:56:09.632Z,8.30
2022-10-18T03:58:37.924Z,15.20
2022-10-18T04:01:06.088Z,8.20
2022-10-18T04:03:34.425Z,8.50
2022-10-18T04:06:03.820Z,15.80
2022-10-18T04:08:32.456Z,15.20
2022-10-18T04:11:05.497Z,15.00
2022-10-18T04:13:33.446Z,15.50
2022-10-18T04:16:01.660Z,15.60
2022-10-18T04:18:29.717Z,15.60
2022-10-18T04:20:57.994Z,13.00
2022-10-18T04:23:26.093Z,9.70
2022-10-18T04:25:54.278Z,10.50
2022-10-18T04:28:22.352Z,14.10
2022-10-18T04:30:53.351Z,8.60
2022-10-18T04:33:21.625Z,14.40
2022-10-18T04:35:52.717Z,17.00
2022-10-18T04:38:20.841Z,11.80
2022-10-18T04:40:50.052Z,14.10
2022-10-18T04:43:18.112Z,12.10
2022-10-18T04:45:48.168Z,15.80
2022-10-18T04:48:17.082Z,16.80
2022-10-18T04:50:49.240Z,11.80
2022-10-18T04:53:18.425Z,15.70
2022-10-18T04:55:49.952Z,15.70
2022-10-18T04:58:20.408Z,15.20
2022-10-18T05:00:51.208Z,11.40
2022-10-18T05:03:19.275Z,15.30
2022-10-18T05:06:01.300Z,16.30
2022-10-18T05:08:31.829Z,16.60
2022-10-18T05:11:00.673Z,14.40
2022-10-18T05:13:29.432Z,17.30
2022-10-18T05:15:59.490Z,18.90
2022-10-18T05:18:27.760Z,15.20
2022-10-18T05:20:56.219Z,22.70
2022-10-18T05:23:24.834Z,16.30
2022-10-18T05:25:52.959Z,23.50
2022-10-18T05:28:41.118Z,18.70
2022-10-18T05:31:11.977Z,23.40
2022-10-18T05:33:40.424Z,35.00
2022-10-18T05:36:09.173Z,45.80
2022-10-18T05:38:45.629Z,44.50
2022-10-18T05:41:14.637Z,29.30
2022-10-18T05:43:42.820Z,66.70
2022-10-18T05:46:15.327Z,34.70
2022-10-18T05:48:44.727Z,63.60
2022-10-18T05:51:12.701Z,60.20
2022-10-18T05:53:40.667Z,44.80
2022-10-18T05:56:09.019Z,26.80
2022-10-18T05:58:37.828Z,18.00
2022-10-18T06:01:06.761Z,16.10
2022-10-18T06:03:35.277Z,18.20
2022-10-18T06:06:09.704Z,14.10
2022-10-18T06:08:39.882Z,16.60
2022-10-18T06:11:14.825Z,19.50
2022-10-18T06:13:44.992Z,26.00
2022-10-18T06:16:15.880Z,27.30
2022-10-18T06:18:47.443Z,27.10
2022-10-18T06:21:16.034Z,25.70
2022-10-18T06:23:48.089Z,20.60
2022-10-18T06:26:16.473Z,20.70
2022-10-18T06:28:44.817Z,15.10
2022-10-18T06:31:13.993Z,14.80
2022-10-18T06:33:42.277Z,12.40
2022-10-18T06:36:17.072Z,12.30
2022-10-18T06:38:45.411Z,18.80
2022-10-18T06:41:13.515Z,15.00
2022-10-18T06:43:41.517Z,19.40
2022-10-18T06:46:09.555Z,17.10
2022-10-18T06:48:39.306Z,20.10
2022-10-18T06:51:08.454Z,15.20
2022-10-18T06:53:43.941Z,12.50
2022-10-18T06:56:21.473Z,18.90
2022-10-18T06:58:49.661Z,18.50
2022-10-18T07:01:18.984Z,18.60
2022-10-18T07:03:49.174Z,20.10
2022-10-18T07:06:19.112Z,18.20
2022-10-18T07:08:52.580Z,18.60
2022-10-18T07:11:26.384Z,15.00
2022-10-18T07:14:06.951Z,14.60
2022-10-18T07:16:36.281Z,18.10
2022-10-18T07:19:04.477Z,18.00
2022-10-18T07:21:32.511Z,20.70
2022-10-18T07:24:00.556Z,24.10
2022-10-18T07:26:31.438Z,17.70
2022-10-18T07:29:09.683Z,17.90
2022-10-18T07:31:39.274Z,17.60
2022-10-18T07:34:10.773Z,16.70
2022-10-18T07:36:44.481Z,22.90
2022-10-18T07:39:12.507Z,23.80
2022-10-18T07:41:40.684Z,23.10
2022-10-18T07:44:09.898Z,19.90
2022-10-18T07:46:38.057Z,21.40
2022-10-18T07:49:06.312Z,24.50
2022-10-18T07:51:36.209Z,20.60
2022-10-18T07:54:04.413Z,26.20
2022-10-18T07:56:32.324Z,26.70
2022-10-18T07:59:00.398Z,24.80
2022-10-18T08:01:28.761Z,31.00
2022-10-18T08:03:56.928Z,22.40
2022-10-18T08:06:25.052Z,26.20
2022-10-18T08:08:53.174Z,28.50
2022-10-18T08:11:23.646Z,28.00
2022-10-18T08:13:53.865Z,17.20
2022-10-18T08:16:38.284Z,26.10
2022-10-18T08:19:08.797Z,15.10
2022-10-18T08:21:37.034Z,18.80
2022-10-18T08:24:05.847Z,13.00
2022-10-18T08:26:33.930Z,14.70
2022-10-18T08:31:51.028Z,13.70
2022-10-18T08:34:19.980Z,17.80
2022-10-18T08:36:48.260Z,17.00
2022-10-18T08:39:16.676Z,17.30
2022-10-18T08:42:06.789Z,15.80
2022-10-18T08:44:48.667Z,11.70
2022-10-18T08:47:19.253Z,14.90
2022-10-18T08:49:47.553Z,15.50
2022-10-18T08:52:22.858Z,14.80
2022-10-18T08:55:09.367Z,12.30
2022-10-18T08:57:51.708Z,12.10
2022-10-18T09:00:41.008Z,11.80
2022-10-18T09:03:22.076Z,17.70
2022-10-18T09:06:31.810Z,14.30
2022-10-18T09:09:20.660Z,12.60
2022-10-18T09:12:10.951Z,16.00
2022-10-18T09:15:16.043Z,11.20
2022-10-18T09:18:35.737Z,17.20
2022-10-18T09:21:23.786Z,14.30
2022-10-18T09:24:12.451Z,14.20
2022-10-18T09:27:08.777Z,12.60
2022-10-18T09:29:51.376Z,14.00
2022-10-18T09:32:35.082Z,12.40
2022-10-18T09:35:21.395Z,14.20
2022-10-18T09:37:56.175Z,15.20
2022-10-18T09:40:31.130Z,13.10
2022-10-18T09:43:17.183Z,13.80
2022-10-18T09:45:49.070Z,14.40
2022-10-18T09:48:32.159Z,14.50
2022-10-18T09:51:19.058Z,15.30
2022-10-18T09:54:11.901Z,12.60
2022-10-18T09:56:52.689Z,13.50
2022-10-18T09:59:42.897Z,11.60
2022-10-18T10:02:16.577Z,12.20
2022-10-18T10:04:45.619Z,12.40
2022-10-18T10:07:24.782Z,13.90
2022-10-18T10:10:12.887Z,11.70
2022-10-18T10:12:41.616Z,13.40
2022-10-18T10:15:28.240Z,13.50
2022-10-18T10:18:23.269Z,11.60
2022-10-18T10:20:57.614Z,13.80
2022-10-18T10:23:40.612Z,12.60
2022-10-18T10:26:24.427Z,13.00
2022-10-18T10:28:59.117Z,12.30
2022-10-18T10:31:45.299Z,12.90
2022-10-18T10:34:18.102Z,12.00
2022-10-18T10:36:53.197Z,11.20
2022-10-18T10:39:27.212Z,13.70
2022-10-18T10:42:00.615Z,13.30
2022-10-18T10:44:36.323Z,13.10
2022-10-18T10:47:08.342Z,10.80
2022-10-18T10:49:46.239Z,11.40
2022-10-18T10:52:28.430Z,12.80
2022-10-18T10:55:11.067Z,12.70
2022-10-18T10:57:50.954Z,12.10
2022-10-18T11:00:44.622Z,10.90
2022-10-18T11:03:34.323Z,12.80
2022-10-18T11:06:02.956Z,12.90
2022-10-18T11:08:41.443Z,9.40
2022-10-18T11:11:20.723Z,10.50
2022-10-18T11:14:24.566Z,10.20
2022-10-18T11:17:02.053Z,11.00
2022-10-18T11:19:42.973Z,9.70
2022-10-18T11:22:17.630Z,11.30
2022-10-18T11:24:45.923Z,9.40
2022-10-18T11:27:20.535Z,8.70
2022-10-18T11:33:56.723Z,7.80
2022-10-18T11:36:49.339Z,8.60
2022-10-18T11:39:34.146Z,8.20
2022-10-18T11:42:27.700Z,8.30
2022-10-18T11:45:11.131Z,9.10
2022-10-18T11:48:00.126Z,6.70
2022-10-18T11:50:38.348Z,7.10
2022-10-18T11:53:30.884Z,8.20
2022-10-18T11:56:44.823Z,7.20
2022-10-18T11:59:36.125Z,7.00
2022-10-18T12:02:40.811Z,8.40
2022-10-18T12:05:30.043Z,7.10
2022-10-18T12:08:05.980Z,7.50
2022-10-18T12:10:52.688Z,7.30
2022-10-18T12:13:49.559Z,6.30
2022-10-18T12:16:38.883Z,6.60
2022-10-18T12:19:23.366Z,5.90
2022-10-18T12:22:08.950Z,6.80
2022-10-18T12:27:05.902Z,6.30
2022-10-18T12:29:40.123Z,7.50
2022-10-18T12:32:16.273Z,7.90
2022-10-18T12:34:57.514Z,6.50
2022-10-18T12:37:32.200Z,7.30
2022-10-18T12:40:15.704Z,6.60
2022-10-18T12:42:49.152Z,6.70
2022-10-18T12:45:24.343Z,7.10
2022-10-18T12:47:53.430Z,6.40
2022-10-18T12:50:30.460Z,7.10
2022-10-18T12:53:09.904Z,7.30
2022-10-18T12:55:51.806Z,6.80
2022-10-18T12:58:25.242Z,6.50
2022-10-18T13:00:57.412Z,6.60
2022-10-18T13:03:25.754Z,6.70
2022-10-18T13:06:00.741Z,6.90
2022-10-18T13:08:35.314Z,6.00
2022-10-18T13:11:09.225Z,6.40
2022-10-18T13:13:40.607Z,6.70
2022-10-18T13:16:20.809Z,6.50
2022-10-18T13:19:10.331Z,6.40
2022-10-18T13:22:08.872Z,6.00
2022-10-18T13:24:47.439Z,5.70
2022-10-18T13:27:52.961Z,6.40
2022-10-18T13:30:47.222Z,5.90
2022-10-18T13:33:17.984Z,5.40
2022-10-18T13:35:58.429Z,5.30
2022-10-18T13:38:38.602Z,5.10
2022-10-18T13:41:15.754Z,5.80
2022-10-18T13:43:53.122Z,6.00
2022-10-18T13:46:44.491Z,5.40
2022-10-18T13:49:39.930Z,5.50
2022-10-18T13:52:11.221Z,5.50
2022-10-18T13:54:54.500Z,6.00
2022-10-18T13:57:47.325Z,5.90
2022-10-18T14:00:53.689Z,5.50
2022-10-18T14:06:28.504Z,5.80
2022-10-18T14:12:41.727Z,5.30
2022-10-18T14:15:31.655Z,6.30
2022-10-18T14:18:20.540Z,6.30
2022-10-18T14:21:12.852Z,6.50
2022-10-18T14:23:44.867Z,6.30
2022-10-18T14:26:18.526Z,6.50
2022-10-18T14:29:03.389Z,5.60
2022-10-18T14:31:31.452Z,5.40
2022-10-18T14:34:01.111Z,7.20
2022-10-18T14:36:42.426Z,8.60
2022-10-18T14:39:38.782Z,7.10
2022-10-18T14:42:36.417Z,6.60
2022-10-18T14:45:19.553Z,7.20
2022-10-18T14:47:48.230Z,7.60
2022-10-18T14:50:30.422Z,7.10
2022-10-18T14:53:05.470Z,7.00
2022-10-18T14:55:34.077Z,7.10
2022-10-18T14:58:14.968Z,6.80
2022-10-18T15:00:45.164Z,7.90
2022-10-18T15:03:18.074Z,5.70
2022-10-18T15:06:01.529Z,5.80
2022-10-18T15:08:53.313Z,6.50
2022-10-18T15:11:22.060Z,7.40
2022-10-18T15:13:54.140Z,6.70
2022-10-18T15:16:28.880Z,6.80
2022-10-18T15:19:06.982Z,5.60
2022-10-18T15:21:36.600Z,7.60
2022-10-18T15:24:28.711Z,7.40
2022-10-18T15:27:01.940Z,8.90
2022-10-18T15:29:33.592Z,6.90
2022-10-18T15:32:14.066Z,7.90
2022-10-18T15:34:42.089Z,7.40
2022-10-18T15:37:23.839Z,6.00
2022-10-18T15:40:23.566Z,14.90
2022-10-18T15:42:55.426Z,9.10
2022-10-18T15:45:33.087Z,10.40
2022-10-18T15:48:01.826Z,12.70
2022-10-18T15:50:51.430Z,14.20
2022-10-18T15:53:24.113Z,13.10
2022-10-18T15:55:55.374Z,20.70
2022-10-18T15:58:26.913Z,18.10
2022-10-18T16:00:59.248Z,17.80
2022-10-18T16:03:28.854Z,17.60
2022-10-18T16:06:02.833Z,18.50
2022-10-18T16:08:32.435Z,21.30
2022-10-18T16:11:00.725Z,20.70
2022-10-18T16:13:29.083Z,24.20
2022-10-18T16:15:57.328Z,35.20
2022-10-18T16:18:26.576Z,25.60
2022-10-18T16:20:54.505Z,26.90
2022-10-18T16:23:28.703Z,20.60
2022-10-18T16:25:57.443Z,21.90
2022-10-18T16:28:26.286Z,16.70
2022-10-18T16:30:54.277Z,16.70
2022-10-18T16:33:22.444Z,15.20
2022-10-18T16:35:50.657Z,20.90
2022-10-18T16:38:35.176Z,19.00
2022-10-18T16:41:08.067Z,14.90
2022-10-18T16:43:38.605Z,18.40
2022-10-18T16:46:18.827Z,20.00
2022-10-18T16:48:51.081Z,25.30
2022-10-18T16:51:22.674Z,25.10
2022-10-18T16:53:55.672Z,23.30
2022-10-18T16:56:31.314Z,28.50
2022-10-18T16:59:02.184Z,20.80
2022-10-18T17:01:32.331Z,28.60
2022-10-18T17:04:07.639Z,27.00
2022-10-18T17:06:53.649Z,22.50
2022-10-18T17:09:36.736Z,19.50
2022-10-18T17:12:09.234Z,24.70
2022-10-18T17:14:52.331Z,18.00
2022-10-18T17:17:29.073Z,26.10
2022-10-18T17:19:57.819Z,27.50
2022-10-18T17:22:45.081Z,28.30
2022-10-18T17:29:16.152Z,20.00
2022-10-18T17:32:55.462Z,27.50
2022-10-18T17:39:45.764Z,21.30
2022-10-18T17:43:10.717Z,29.00
2022-10-18T17:57:19.621Z,25.80
2022-10-18T18:00:18.678Z,25.60
2022-10-18T18:37:11.871Z,39.70
2022-10-18T19:04:05.858Z,21.30
2022-10-18T19:13:32.709Z,31.50
2022-10-18T19:23:05.370Z,34.60
2022-10-18T21:27:17.533Z,15.90
2022-10-18T21:34:46.538Z,23.90
2022-10-18T22:07:51.709Z,21.30
2022-10-18T22:16:02.356Z,13.10
2022-10-18T22:19:14.382Z,19.50
2022-10-18T22:27:46.861Z,20.40
2022-10-18T22:31:32.008Z,20.10
2022-10-18T22:34:56.744Z,17.20
2022-10-18T22:37:56.790Z,19.40
2022-10-18T22:41:16.682Z,11.30
2022-10-18T22:44:21.155Z,17.90
2022-10-18T22:50:57.392Z,10.20
2022-10-18T22:57:47.286Z,12.10
2022-10-18T23:04:12.751Z,20.10
2022-10-18T23:07:10.937Z,14.10
2022-10-18T23:10:09.461Z,12.60
2022-10-18T23:16:58.494Z,15.20
2022-10-18T23:21:00.073Z,16.90
2022-10-18T23:30:57.834Z,12.40
2022-10-18T23:34:37.398Z,10.70
2022-10-18T23:37:51.894Z,18.60
2022-10-18T23:40:35.681Z,10.00
2022-10-18T23:43:37.757Z,12.10
2022-10-18T23:46:40.367Z,11.50
2022-10-18T23:52:29.696Z,13.40
2022-10-18T23:55:19.853Z,18.80
2022-10-18T23:58:12.522Z,12.20
